sensor_id;sensor_type;location;lat;lon;timestamp;pressure;altitude;pressure_sealevel;temperature;humidity
22031;BME280;11179;52.106;21.024;2023-02-13T00:01:29;102149.81;;;4.16;72.91
22031;BME280;11179;52.106;21.024;2023-02-13T00:03:54;102150.81;;;4.15;72.60
22031;BME280;11179;52.106;21.024;2023-02-13T00:06:20;102149.81;;;4.16;73.03
22031;BME280;11179;52.106;21.024;2023-02-13T00:08:45;102133.31;;;4.17;72.59
22031;BME280;11179;52.106;21.024;2023-02-13T00:11:10;102144.38;;;4.24;72.86
22031;BME280;11179;52.106;21.024;2023-02-13T00:13:35;102148.59;;;4.26;72.83
22031;BME280;11179;52.106;21.024;2023-02-13T00:16:02;102148.25;;;4.29;72.56
22031;BME280;11179;52.106;21.024;2023-02-13T00:18:28;102145.53;;;4.29;72.47
22031;BME280;11179;52.106;21.024;2023-02-13T00:20:59;102147.41;;;4.29;72.50
22031;BME280;11179;52.106;21.024;2023-02-13T00:23:25;102144.50;;;4.30;72.53
22031;BME280;11179;52.106;21.024;2023-02-13T00:25:50;102137.19;;;4.31;72.65
22031;BME280;11179;52.106;21.024;2023-02-13T00:28:15;102145.88;;;4.34;72.80
22031;BME280;11179;52.106;21.024;2023-02-13T00:30:41;102145.69;;;4.36;72.79
22031;BME280;11179;52.106;21.024;2023-02-13T00:33:06;102151.81;;;4.38;72.81
22031;BME280;11179;52.106;21.024;2023-02-13T00:35:31;102137.19;;;4.39;72.88
22031;BME280;11179;52.106;21.024;2023-02-13T00:37:57;102129.03;;;4.39;72.80
22031;BME280;11179;52.106;21.024;2023-02-13T00:40:22;102112.91;;;4.37;72.53
22031;BME280;11179;52.106;21.024;2023-02-13T00:42:48;102115.28;;;4.32;72.57
22031;BME280;11179;52.106;21.024;2023-02-13T00:45:13;102115.59;;;4.37;72.46
22031;BME280;11179;52.106;21.024;2023-02-13T00:47:38;102126.31;;;4.39;72.66
22031;BME280;11179;52.106;21.024;2023-02-13T00:50:04;102132.09;;;4.36;72.58
22031;BME280;11179;52.106;21.024;2023-02-13T00:52:29;102133.44;;;4.40;72.56
22031;BME280;11179;52.106;21.024;2023-02-13T00:54:55;102132.41;;;4.41;72.59
22031;BME280;11179;52.106;21.024;2023-02-13T00:57:20;102126.78;;;4.42;72.62
22031;BME280;11179;52.106;21.024;2023-02-13T00:59:45;102132.06;;;4.44;72.50
22031;BME280;11179;52.106;21.024;2023-02-13T01:02:11;102141.75;;;4.47;72.38
22031;BME280;11179;52.106;21.024;2023-02-13T01:04:36;102133.41;;;4.48;72.32
22031;BME280;11179;52.106;21.024;2023-02-13T01:07:01;102141.25;;;4.51;72.51
22031;BME280;11179;52.106;21.024;2023-02-13T01:09:27;102132.06;;;4.52;72.58
22031;BME280;11179;52.106;21.024;2023-02-13T01:11:52;102122.53;;;4.48;72.39
22031;BME280;11179;52.106;21.024;2023-02-13T01:14:17;102118.44;;;4.52;72.38
22031;BME280;11179;52.106;21.024;2023-02-13T01:16:43;102118.44;;;4.52;72.31
22031;BME280;11179;52.106;21.024;2023-02-13T01:19:08;102115.91;;;4.51;72.15
22031;BME280;11179;52.106;21.024;2023-02-13T01:21:33;102111.31;;;4.51;72.41
22031;BME280;11179;52.106;21.024;2023-02-13T01:24:02;102107.56;;;4.52;72.21
22031;BME280;11179;52.106;21.024;2023-02-13T01:26:27;102109.91;;;4.55;72.10
22031;BME280;11179;52.106;21.024;2023-02-13T01:28:53;102111.97;;;4.53;72.33
22031;BME280;11179;52.106;21.024;2023-02-13T01:31:19;102119.28;;;4.53;72.27
22031;BME280;11179;52.106;21.024;2023-02-13T01:33:45;102125.22;;;4.56;72.45
22031;BME280;11179;52.106;21.024;2023-02-13T01:36:11;102118.06;;;4.55;72.19
22031;BME280;11179;52.106;21.024;2023-02-13T01:38:39;102119.25;;;4.61;71.97
22031;BME280;11179;52.106;21.024;2023-02-13T01:41:04;102119.59;;;4.58;72.34
22031;BME280;11179;52.106;21.024;2023-02-13T01:43:48;102128.44;;;4.60;72.08
22031;BME280;11179;52.106;21.024;2023-02-13T01:46:21;102112.13;;;4.60;71.91
22031;BME280;11179;52.106;21.024;2023-02-13T01:48:48;102117.38;;;4.61;72.11
22031;BME280;11179;52.106;21.024;2023-02-13T01:51:19;102112.13;;;4.60;71.93
22031;BME280;11179;52.106;21.024;2023-02-13T01:53:51;102112.13;;;4.60;71.96
22031;BME280;11179;52.106;21.024;2023-02-13T01:56:28;102112.97;;;4.60;72.08
22031;BME280;11179;52.106;21.024;2023-02-13T01:59:00;102110.06;;;4.62;71.91
22031;BME280;11179;52.106;21.024;2023-02-13T02:01:27;102116.03;;;4.65;71.93
22031;BME280;11179;52.106;21.024;2023-02-13T02:04:15;102119.38;;;4.67;71.90
22031;BME280;11179;52.106;21.024;2023-02-13T02:06:53;102116.84;;;4.66;71.82
22031;BME280;11179;52.106;21.024;2023-02-13T02:09:24;102114.97;;;4.66;71.64
22031;BME280;11179;52.106;21.024;2023-02-13T02:12:06;102108.50;;;4.67;71.62
22031;BME280;11179;52.106;21.024;2023-02-13T02:14:33;102111.91;;;4.69;71.64
22031;BME280;11179;52.106;21.024;2023-02-13T02:16:59;102117.34;;;4.69;71.69
22031;BME280;11179;52.106;21.024;2023-02-13T02:27:44;102111.72;;;4.71;71.50
22031;BME280;11179;52.106;21.024;2023-02-13T02:33:29;102101.34;;;4.66;71.37
22031;BME280;11179;52.106;21.024;2023-02-13T02:36:11;102112.91;;;4.68;71.26
22031;BME280;11179;52.106;21.024;2023-02-13T02:41:41;102106.44;;;4.69;71.35
22031;BME280;11179;52.106;21.024;2023-02-13T02:44:34;102109.66;;;4.73;71.37
22031;BME280;11179;52.106;21.024;2023-02-13T02:47:26;102107.81;;;4.73;71.30
22031;BME280;11179;52.106;21.024;2023-02-13T02:53:33;102118.34;;;4.76;70.98
22031;BME280;11179;52.106;21.024;2023-02-13T02:56:17;102114.94;;;4.74;71.01
22031;BME280;11179;52.106;21.024;2023-02-13T02:58:49;102117.31;;;4.77;71.18
22031;BME280;11179;52.106;21.024;2023-02-13T03:01:35;102116.66;;;4.75;70.84
22031;BME280;11179;52.106;21.024;2023-02-13T03:04:27;102120.03;;;4.77;70.75
22031;BME280;11179;52.106;21.024;2023-02-13T03:07:15;102116.94;;;4.80;70.68
22031;BME280;11179;52.106;21.024;2023-02-13T03:09:50;102125.09;;;4.80;70.58
22031;BME280;11179;52.106;21.024;2023-02-13T03:13:02;102120.50;;;4.81;70.88
22031;BME280;11179;52.106;21.024;2023-02-13T03:15:45;102115.06;;;4.81;70.56
22031;BME280;11179;52.106;21.024;2023-02-13T03:18:32;102115.75;;;4.83;70.54
22031;BME280;11179;52.106;21.024;2023-02-13T03:30:21;102122.72;;;4.86;70.54
22031;BME280;11179;52.106;21.024;2023-02-13T03:38:38;102107.56;;;4.83;70.42
22031;BME280;11179;52.106;21.024;2023-02-13T03:41:18;102103.31;;;4.80;70.55
22031;BME280;11179;52.106;21.024;2023-02-13T03:46:22;102098.28;;;4.77;70.92
22031;BME280;11179;52.106;21.024;2023-02-13T03:48:49;102115.91;;;4.82;70.73
22031;BME280;11179;52.106;21.024;2023-02-13T03:52:08;102112.16;;;4.83;70.50
22031;BME280;11179;52.106;21.024;2023-02-13T03:57:35;102109.44;;;4.83;70.68
22031;BME280;11179;52.106;21.024;2023-02-13T04:00:21;102104.19;;;4.81;70.50
22031;BME280;11179;52.106;21.024;2023-02-13T04:03:06;102106.72;;;4.83;70.56
22031;BME280;11179;52.106;21.024;2023-02-13T04:05:38;102112.16;;;4.83;70.77
22031;BME280;11179;52.106;21.024;2023-02-13T04:08:06;102117.59;;;4.83;70.82
22031;BME280;11179;52.106;21.024;2023-02-13T04:10:33;102106.38;;;4.86;70.54
22031;BME280;11179;52.106;21.024;2023-02-13T04:13:17;102108.91;;;4.87;70.66
22031;BME280;11179;52.106;21.024;2023-02-13T04:15:50;102105.53;;;4.85;70.66
22031;BME280;11179;52.106;21.024;2023-02-13T04:18:21;102108.41;;;4.84;70.90
22031;BME280;11179;52.106;21.024;2023-02-13T04:20:47;102111.81;;;4.86;70.51
22031;BME280;11179;52.106;21.024;2023-02-13T04:23:14;102106.38;;;4.86;70.55
22031;BME280;11179;52.106;21.024;2023-02-13T04:25:44;102100.75;;;4.87;70.47
22031;BME280;11179;52.106;21.024;2023-02-13T04:28:11;102103.47;;;4.87;70.64
22031;BME280;11179;52.106;21.024;2023-02-13T04:30:36;102095.00;;;4.82;70.57
22031;BME280;11179;52.106;21.024;2023-02-13T04:33:01;102106.03;;;4.89;70.88
22031;BME280;11179;52.106;21.024;2023-02-13T04:35:27;102095.47;;;4.86;70.73
22031;BME280;11179;52.106;21.024;2023-02-13T04:37:52;102106.88;;;4.89;70.71
22031;BME280;11179;52.106;21.024;2023-02-13T04:40:18;102110.28;;;4.91;70.78
22031;BME280;11179;52.106;21.024;2023-02-13T04:42:46;102096.44;;;4.93;70.72
22031;BME280;11179;52.106;21.024;2023-02-13T04:45:11;102099.19;;;4.93;70.49
22031;BME280;11179;52.106;21.024;2023-02-13T04:47:37;102089.34;;;4.92;70.63
22031;BME280;11179;52.106;21.024;2023-02-13T04:50:02;102093.09;;;4.91;70.62
22031;BME280;11179;52.106;21.024;2023-02-13T04:52:27;102097.13;;;4.95;70.59
22031;BME280;11179;52.106;21.024;2023-02-13T04:54:53;102091.22;;;4.91;70.57
22031;BME280;11179;52.106;21.024;2023-02-13T04:57:18;102101.09;;;4.92;70.85
22031;BME280;11179;52.106;21.024;2023-02-13T04:59:43;102097.97;;;4.95;70.57
22031;BME280;11179;52.106;21.024;2023-02-13T05:02:09;102105.28;;;4.95;70.62
22031;BME280;11179;52.106;21.024;2023-02-13T05:04:34;102100.69;;;4.95;70.78
22031;BME280;11179;52.106;21.024;2023-02-13T05:06:59;102096.94;;;4.96;70.74
22031;BME280;11179;52.106;21.024;2023-02-13T05:09:25;102096.94;;;4.96;70.78
22031;BME280;11179;52.106;21.024;2023-02-13T05:11:52;102099.50;;;4.98;70.71
22031;BME280;11179;52.106;21.024;2023-02-13T05:14:17;102095.25;;;4.95;70.39
22031;BME280;11179;52.106;21.024;2023-02-13T05:16:43;102093.72;;;4.93;70.52
22031;BME280;11179;52.106;21.024;2023-02-13T05:19:08;102098.81;;;4.96;70.92
22031;BME280;11179;52.106;21.024;2023-02-13T05:21:33;102101.53;;;4.96;70.78
22031;BME280;11179;52.106;21.024;2023-02-13T05:24:17;102105.78;;;4.98;70.68
22031;BME280;11179;52.106;21.024;2023-02-13T05:26:42;102101.72;;;4.94;70.85
22031;BME280;11179;52.106;21.024;2023-02-13T05:29:09;102111.41;;;4.97;70.80
22031;BME280;11179;52.106;21.024;2023-02-13T05:31:55;102104.25;;;4.96;70.54
22031;BME280;11179;52.106;21.024;2023-02-13T05:34:23;102115.16;;;4.96;70.74
22031;BME280;11179;52.106;21.024;2023-02-13T05:36:49;102105.78;;;4.98;70.85
22031;BME280;11179;52.106;21.024;2023-02-13T05:39:14;102113.09;;;4.98;70.71
22031;BME280;11179;52.106;21.024;2023-02-13T05:41:41;102106.81;;;4.97;70.76
22031;BME280;11179;52.106;21.024;2023-02-13T05:44:07;102118.56;;;4.98;70.42
22031;BME280;11179;52.106;21.024;2023-02-13T05:46:32;102119.56;;;4.97;70.79
22031;BME280;11179;52.106;21.024;2023-02-13T05:48:58;102121.44;;;4.96;70.61
22031;BME280;11179;52.106;21.024;2023-02-13T05:51:23;102119.91;;;5.02;70.58
22031;BME280;11179;52.106;21.024;2023-02-13T05:53:49;102127.56;;;4.98;70.63
22031;BME280;11179;52.106;21.024;2023-02-13T05:56:14;102119.56;;;4.97;70.30
22031;BME280;11179;52.106;21.024;2023-02-13T05:58:40;102124.34;;;4.95;70.43
22031;BME280;11179;52.106;21.024;2023-02-13T06:01:05;102134.88;;;4.98;70.45
22031;BME280;11179;52.106;21.024;2023-02-13T06:03:31;102129.09;;;5.01;70.35
22031;BME280;11179;52.106;21.024;2023-02-13T06:05:58;102128.25;;;5.00;70.58
22031;BME280;11179;52.106;21.024;2023-02-13T06:08:23;102140.66;;;5.03;70.31
22031;BME280;11179;52.106;21.024;2023-02-13T06:10:49;102132.84;;;5.00;70.29
22031;BME280;11179;52.106;21.024;2023-02-13T06:13:16;102133.16;;;5.05;70.61
22031;BME280;11179;52.106;21.024;2023-02-13T06:15:41;102133.16;;;5.05;70.47
22031;BME280;11179;52.106;21.024;2023-02-13T06:18:07;102132.50;;;5.03;70.45
22031;BME280;11179;52.106;21.024;2023-02-13T06:20:33;102122.63;;;5.02;70.16
22031;BME280;11179;52.106;21.024;2023-02-13T06:22:59;102120.56;;;5.04;70.03
22031;BME280;11179;52.106;21.024;2023-02-13T06:25:24;102121.44;;;5.04;70.35
22031;BME280;11179;52.106;21.024;2023-02-13T06:27:49;102108.00;;;5.03;70.27
22031;BME280;11179;52.106;21.024;2023-02-13T06:30:16;102120.41;;;5.05;70.09
22031;BME280;11179;52.106;21.024;2023-02-13T06:32:41;102124.63;;;5.08;70.27
22031;BME280;11179;52.106;21.024;2023-02-13T06:35:07;102123.13;;;5.05;70.17
22031;BME280;11179;52.106;21.024;2023-02-13T06:37:33;102126.31;;;5.09;69.89
22031;BME280;11179;52.106;21.024;2023-02-13T06:39:59;102127.34;;;5.08;69.78
22031;BME280;11179;52.106;21.024;2023-02-13T06:42:24;102140.09;;;5.07;69.84
22031;BME280;11179;52.106;21.024;2023-02-13T06:44:49;102126.19;;;5.02;69.91
22031;BME280;11179;52.106;21.024;2023-02-13T06:47:15;102140.09;;;5.07;70.02
22031;BME280;11179;52.106;21.024;2023-02-13T06:49:40;102140.59;;;5.11;69.91
22031;BME280;11179;52.106;21.024;2023-02-13T06:52:05;102143.31;;;5.11;69.92
22031;BME280;11179;52.106;21.024;2023-02-13T06:54:31;102145.03;;;5.12;69.75
22031;BME280;11179;52.106;21.024;2023-02-13T06:56:56;102132.44;;;5.11;69.77
22031;BME280;11179;52.106;21.024;2023-02-13T06:59:21;102136.50;;;5.15;69.86
22031;BME280;11179;52.106;21.024;2023-02-13T07:01:47;102149.09;;;5.16;69.75
22031;BME280;11179;52.106;21.024;2023-02-13T07:04:12;102145.50;;;5.15;69.65
22031;BME280;11179;52.106;21.024;2023-02-13T07:06:37;102135.47;;;5.16;69.42
22031;BME280;11179;52.106;21.024;2023-02-13T07:09:03;102141.22;;;5.21;69.46
22031;BME280;11179;52.106;21.024;2023-02-13T07:11:29;102128.44;;;5.22;69.35
22031;BME280;11179;52.106;21.024;2023-02-13T07:13:55;102137.47;;;5.22;69.34
22031;BME280;11179;52.106;21.024;2023-02-13T07:16:20;102128.94;;;5.25;69.61
22031;BME280;11179;52.106;21.024;2023-02-13T07:18:45;102120.22;;;5.30;69.40
22031;BME280;11179;52.106;21.024;2023-02-13T07:21:11;102123.63;;;5.32;69.50
22031;BME280;11179;52.106;21.024;2023-02-13T07:23:36;102121.38;;;5.35;69.55
22031;BME280;11179;52.106;21.024;2023-02-13T07:26:02;102116.22;;;5.40;69.47
22031;BME280;11179;52.106;21.024;2023-02-13T07:28:28;102124.66;;;5.54;69.27
22031;BME280;11179;52.106;21.024;2023-02-13T07:30:54;102116.34;;;5.70;69.29
22031;BME280;11179;52.106;21.024;2023-02-13T07:33:19;102120.94;;;6.07;68.92
22031;BME280;11179;52.106;21.024;2023-02-13T07:35:46;102116.28;;;6.45;68.32
22031;BME280;11179;52.106;21.024;2023-02-13T07:38:11;102116.28;;;6.96;67.66
22031;BME280;11179;52.106;21.024;2023-02-13T07:40:37;102114.94;;;7.42;67.05
22031;BME280;11179;52.106;21.024;2023-02-13T07:43:02;102118.41;;;7.79;66.59
22031;BME280;11179;52.106;21.024;2023-02-13T07:45:27;102127.47;;;8.07;65.76
22031;BME280;11179;52.106;21.024;2023-02-13T07:47:56;102130.59;;;8.04;65.03
22031;BME280;11179;52.106;21.024;2023-02-13T07:50:22;102130.03;;;7.87;64.70
22031;BME280;11179;52.106;21.024;2023-02-13T07:52:58;102132.78;;;7.87;64.76
22031;BME280;11179;52.106;21.024;2023-02-13T07:55:25;102131.84;;;8.01;64.51
22031;BME280;11179;52.106;21.024;2023-02-13T07:57:51;102129.25;;;7.93;64.25
22031;BME280;11179;52.106;21.024;2023-02-13T08:00:17;102130.38;;;7.78;64.18
22031;BME280;11179;52.106;21.024;2023-02-13T08:02:43;102119.91;;;7.60;64.63
22031;BME280;11179;52.106;21.024;2023-02-13T08:05:08;102128.81;;;7.47;64.68
22031;BME280;11179;52.106;21.024;2023-02-13T08:07:34;102123.66;;;7.31;64.59
22031;BME280;11179;52.106;21.024;2023-02-13T08:09:59;102129.50;;;7.28;64.89
22031;BME280;11179;52.106;21.024;2023-02-13T08:12:43;102124.41;;;7.25;64.80
22031;BME280;11179;52.106;21.024;2023-02-13T08:15:11;102128.13;;;7.17;64.52
22031;BME280;11179;52.106;21.024;2023-02-13T08:17:37;102127.19;;;7.10;64.83
22031;BME280;11179;52.106;21.024;2023-02-13T08:20:04;102125.22;;;7.04;64.74
22031;BME280;11179;52.106;21.024;2023-02-13T08:22:31;102125.63;;;7.01;64.74
22031;BME280;11179;52.106;21.024;2023-02-13T08:24:57;102118.84;;;6.97;64.49
22031;BME280;11179;52.106;21.024;2023-02-13T08:27:22;102123.25;;;6.98;64.63
22031;BME280;11179;52.106;21.024;2023-02-13T08:29:48;102113.84;;;7.01;64.86
22031;BME280;11179;52.106;21.024;2023-02-13T08:32:15;102116.38;;;7.02;64.53
22031;BME280;11179;52.106;21.024;2023-02-13T08:34:40;102109.47;;;7.06;64.37
22031;BME280;11179;52.106;21.024;2023-02-13T08:37:06;102106.56;;;7.08;64.59
22031;BME280;11179;52.106;21.024;2023-02-13T08:39:31;102105.50;;;7.09;64.31
22031;BME280;11179;52.106;21.024;2023-02-13T08:41:56;102101.38;;;7.13;64.40
22031;BME280;11179;52.106;21.024;2023-02-13T08:44:21;102114.69;;;7.22;64.27
22031;BME280;11179;52.106;21.024;2023-02-13T08:46:47;102107.50;;;7.36;64.11
22031;BME280;11179;52.106;21.024;2023-02-13T08:49:12;102109.88;;;7.46;64.03
22031;BME280;11179;52.106;21.024;2023-02-13T08:51:37;102112.56;;;7.60;63.78
22031;BME280;11179;52.106;21.024;2023-02-13T08:54:03;102086.97;;;7.68;63.58
22031;BME280;11179;52.106;21.024;2023-02-13T08:56:28;102096.78;;;7.84;63.22
22031;BME280;11179;52.106;21.024;2023-02-13T08:58:54;102091.75;;;7.87;62.87
22031;BME280;11179;52.106;21.024;2023-02-13T09:01:19;102093.63;;;7.87;62.77
22031;BME280;11179;52.106;21.024;2023-02-13T09:03:44;102093.16;;;8.05;62.45
22031;BME280;11179;52.106;21.024;2023-02-13T09:06:10;102090.41;;;8.32;62.35
22031;BME280;11179;52.106;21.024;2023-02-13T09:08:35;102089.84;;;8.44;61.71
22031;BME280;11179;52.106;21.024;2023-02-13T09:11:02;102098.44;;;8.41;61.35
22031;BME280;11179;52.106;21.024;2023-02-13T09:13:31;102086.63;;;8.33;61.28
22031;BME280;11179;52.106;21.024;2023-02-13T09:16:04;102097.50;;;8.20;61.51
22031;BME280;11179;52.106;21.024;2023-02-13T09:18:29;102094.84;;;8.06;61.35
22031;BME280;11179;52.106;21.024;2023-02-13T09:21:00;102096.81;;;7.90;61.54
22031;BME280;11179;52.106;21.024;2023-02-13T09:23:26;102095.50;;;7.80;61.43
22031;BME280;11179;52.106;21.024;2023-02-13T09:25:54;102096.22;;;7.67;61.49
22031;BME280;11179;52.106;21.024;2023-02-13T09:28:19;102101.19;;;7.57;61.45
22031;BME280;11179;52.106;21.024;2023-02-13T09:30:45;102100.25;;;7.50;61.69
22031;BME280;11179;52.106;21.024;2023-02-13T09:33:10;102097.47;;;7.43;61.81
22031;BME280;11179;52.106;21.024;2023-02-13T09:35:38;102100.72;;;7.53;61.67
22031;BME280;11179;52.106;21.024;2023-02-13T09:38:06;102090.25;;;7.57;61.46
22031;BME280;11179;52.106;21.024;2023-02-13T09:40:37;102091.88;;;7.51;61.49
22031;BME280;11179;52.106;21.024;2023-02-13T09:43:10;102096.44;;;7.44;61.59
22031;BME280;11179;52.106;21.024;2023-02-13T09:45:37;102101.25;;;7.42;61.50
22031;BME280;11179;52.106;21.024;2023-02-13T09:48:04;102092.13;;;7.35;61.82
22031;BME280;11179;52.106;21.024;2023-02-13T09:50:30;102083.59;;;7.23;61.75
22031;BME280;11179;52.106;21.024;2023-02-13T09:52:58;102090.31;;;7.21;61.83
22031;BME280;11179;52.106;21.024;2023-02-13T09:55:36;102092.28;;;7.27;61.90
22031;BME280;11179;52.106;21.024;2023-02-13T09:58:11;102107.16;;;7.24;62.10
22031;BME280;11179;52.106;21.024;2023-02-13T10:00:45;102095.84;;;7.27;62.22
22031;BME280;11179;52.106;21.024;2023-02-13T10:03:24;102101.25;;;7.42;62.00
22031;BME280;11179;52.106;21.024;2023-02-13T10:14:15;102112.97;;;7.57;62.21
22031;BME280;11179;52.106;21.024;2023-02-13T10:16:52;102117.72;;;7.49;62.03
22031;BME280;11179;52.106;21.024;2023-02-13T10:19:36;102117.66;;;7.42;62.70
22031;BME280;11179;52.106;21.024;2023-02-13T10:22:10;102114.84;;;7.36;62.79
22031;BME280;11179;52.106;21.024;2023-02-13T10:24:53;102111.66;;;7.32;62.50
22031;BME280;11179;52.106;21.024;2023-02-13T10:27:22;102121.25;;;7.43;62.80
22031;BME280;11179;52.106;21.024;2023-02-13T10:29:57;102121.66;;;7.46;62.90
22031;BME280;11179;52.106;21.024;2023-02-13T10:32:40;102119.72;;;7.61;62.66
22031;BME280;11179;52.106;21.024;2023-02-13T10:37:44;102105.38;;;7.81;62.31
22031;BME280;11179;52.106;21.024;2023-02-13T10:40:15;102098.22;;;7.80;62.45
22031;BME280;11179;52.106;21.024;2023-02-13T10:43:08;102096.47;;;7.72;62.31
22031;BME280;11179;52.106;21.024;2023-02-13T10:49:34;102081.13;;;7.71;62.35
22031;BME280;11179;52.106;21.024;2023-02-13T10:51:34;102088.69;;;7.69;62.59
22031;BME280;11179;52.106;21.024;2023-02-13T10:57:02;102080.28;;;7.71;62.62
22031;BME280;11179;52.106;21.024;2023-02-13T11:00:10;102072.28;;;7.69;62.97
22031;BME280;11179;52.106;21.024;2023-02-13T11:02:38;102070.97;;;7.65;62.88
22031;BME280;11179;52.106;21.024;2023-02-13T11:05:20;102076.81;;;7.62;63.18
22031;BME280;11179;52.106;21.024;2023-02-13T11:07:47;102073.25;;;7.61;62.95
22031;BME280;11179;52.106;21.024;2023-02-13T11:10:20;102067.13;;;7.59;63.29
22031;BME280;11179;52.106;21.024;2023-02-13T11:12:46;102065.84;;;7.55;63.21
22031;BME280;11179;52.106;21.024;2023-02-13T11:17:51;102076.16;;;7.60;63.24
22031;BME280;11179;52.106;21.024;2023-02-13T11:20:36;102069.22;;;7.57;63.54
22031;BME280;11179;52.106;21.024;2023-02-13T11:23:25;102063.97;;;7.56;63.49
22031;BME280;11179;52.106;21.024;2023-02-13T11:26:02;102066.69;;;7.56;63.67
22031;BME280;11179;52.106;21.024;2023-02-13T11:28:29;102070.47;;;7.55;63.64
22031;BME280;11179;52.106;21.024;2023-02-13T11:31:18;102065.00;;;7.55;63.68
22031;BME280;11179;52.106;21.024;2023-02-13T11:33:45;102061.47;;;7.61;63.97
22031;BME280;11179;52.106;21.024;2023-02-13T11:36:19;102065.31;;;7.67;63.82
22031;BME280;11179;52.106;21.024;2023-02-13T11:38:56;102070.22;;;7.78;63.95
22031;BME280;11179;52.106;21.024;2023-02-13T11:41:23;102065.81;;;7.77;63.47
22031;BME280;11179;52.106;21.024;2023-02-13T11:43:53;102059.03;;;7.73;63.70
22031;BME280;11179;52.106;21.024;2023-02-13T11:46:26;102061.38;;;7.76;63.97
22031;BME280;11179;52.106;21.024;2023-02-13T11:48:57;102058.09;;;7.87;63.67
22031;BME280;11179;52.106;21.024;2023-02-13T11:51:45;102048.91;;;7.94;63.57
22031;BME280;11179;52.106;21.024;2023-02-13T11:56:58;102037.03;;;7.81;63.46
22031;BME280;11179;52.106;21.024;2023-02-13T11:59:26;102036.75;;;7.76;63.35
22031;BME280;11179;52.106;21.024;2023-02-13T12:02:15;102037.59;;;7.76;63.67
22031;BME280;11179;52.106;21.024;2023-02-13T12:04:41;102036.53;;;7.71;63.72
22031;BME280;11179;52.106;21.024;2023-02-13T12:07:29;102021.75;;;7.65;63.82
22031;BME280;11179;52.106;21.024;2023-02-13T12:10:04;102028.53;;;7.69;63.79
22031;BME280;11179;52.106;21.024;2023-02-13T12:12:37;102027.69;;;7.69;63.80
22031;BME280;11179;52.106;21.024;2023-02-13T12:15:15;102019.66;;;7.67;63.61
22031;BME280;11179;52.106;21.024;2023-02-13T12:17:43;102021.94;;;7.63;63.54
22031;BME280;11179;52.106;21.024;2023-02-13T12:20:14;102008.44;;;7.55;63.47
22031;BME280;11179;52.106;21.024;2023-02-13T12:28:14;102008.66;;;7.60;63.62
22031;BME280;11179;52.106;21.024;2023-02-13T12:34:28;102005.16;;;7.67;63.19
22031;BME280;11179;52.106;21.024;2023-02-13T12:48:39;101988.75;;;7.67;62.94
22031;BME280;11179;52.106;21.024;2023-02-13T13:18:34;101951.78;;;7.71;61.50
22031;BME280;11179;52.106;21.024;2023-02-13T13:21:18;101946.06;;;7.72;61.36
22031;BME280;11179;52.106;21.024;2023-02-13T13:24:20;101944.41;;;7.71;61.42
22031;BME280;11179;52.106;21.024;2023-02-13T13:26:49;101939.78;;;7.72;61.25
22031;BME280;11179;52.106;21.024;2023-02-13T13:29:22;101942.75;;;7.77;61.21
22031;BME280;11179;52.106;21.024;2023-02-13T13:32:01;101938.50;;;7.74;60.92
22031;BME280;11179;52.106;21.024;2023-02-13T13:34:29;101940.38;;;7.67;61.14
22031;BME280;11179;52.106;21.024;2023-02-13T13:37:20;101946.69;;;7.68;61.12
22031;BME280;11179;52.106;21.024;2023-02-13T13:45:22;101940.44;;;7.46;61.16
22031;BME280;11179;52.106;21.024;2023-02-13T13:50:41;101942.22;;;7.32;61.04
22031;BME280;11179;52.106;21.024;2023-02-13T13:53:17;101949.53;;;7.25;61.13
22031;BME280;11179;52.106;21.024;2023-02-13T13:58:40;101953.84;;;7.13;61.56
22031;BME280;11179;52.106;21.024;2023-02-13T14:03:45;101945.84;;;7.11;61.40
22031;BME280;11179;52.106;21.024;2023-02-13T14:06:15;101940.47;;;7.18;61.58
22031;BME280;11179;52.106;21.024;2023-02-13T14:11:30;101938.69;;;7.32;61.34
22031;BME280;11179;52.106;21.024;2023-02-13T14:13:56;101933.59;;;7.28;61.43
22031;BME280;11179;52.106;21.024;2023-02-13T14:16:43;101938.22;;;7.28;61.46
22031;BME280;11179;52.106;21.024;2023-02-13T14:19:28;101941.72;;;7.22;61.64
22031;BME280;11179;52.106;21.024;2023-02-13T14:24:57;101929.72;;;7.16;61.68
22031;BME280;11179;52.106;21.024;2023-02-13T14:27:34;101917.50;;;7.12;61.87
22031;BME280;11179;52.106;21.024;2023-02-13T14:30:05;101907.16;;;7.08;61.76
22031;BME280;11179;52.106;21.024;2023-02-13T14:32:46;101924.34;;;7.02;61.86
22031;BME280;11179;52.106;21.024;2023-02-13T14:35:22;101922.38;;;6.96;61.71
22031;BME280;11179;52.106;21.024;2023-02-13T14:37:52;101920.28;;;6.91;61.91
22031;BME280;11179;52.106;21.024;2023-02-13T14:42:46;101923.56;;;6.86;62.09
22031;BME280;11179;52.106;21.024;2023-02-13T14:45:25;101935.16;;;6.88;61.95
22031;BME280;11179;52.106;21.024;2023-02-13T14:47:54;101937.69;;;6.90;62.15
22031;BME280;11179;52.106;21.024;2023-02-13T14:50:26;101926.56;;;6.91;61.97
22031;BME280;11179;52.106;21.024;2023-02-13T14:52:53;101923.56;;;6.86;62.08
22031;BME280;11179;52.106;21.024;2023-02-13T15:03:37;101930.06;;;6.85;62.12
22031;BME280;11179;52.106;21.024;2023-02-13T15:06:40;101920.66;;;6.88;62.29
22031;BME280;11179;52.106;21.024;2023-02-13T15:09:37;101917.28;;;6.86;62.01
22031;BME280;11179;52.106;21.024;2023-02-13T15:12:22;101920.56;;;6.81;62.09
22031;BME280;11179;52.106;21.024;2023-02-13T15:14:48;101920.16;;;6.78;62.25
22031;BME280;11179;52.106;21.024;2023-02-13T15:17:17;101908.38;;;6.77;62.44
22031;BME280;11179;52.106;21.024;2023-02-13T15:19:48;101915.06;;;6.75;62.47
22031;BME280;11179;52.106;21.024;2023-02-13T15:22:19;101915.91;;;6.75;62.61
22031;BME280;11179;52.106;21.024;2023-02-13T15:24:46;101907.91;;;6.74;62.40
22031;BME280;11179;52.106;21.024;2023-02-13T15:27:18;101899.25;;;6.70;62.48